Kullen, Sweden

2:30 PM CEST on May 30, 2015 (GMT +0200)
IARILDNY2 | | Change Station
CLOSE
Current Station
Personal Weather Station
Location: Arild, Hoganas
Elevation: 151 ft
Nearby Weather Stations

Elev 151 ft 56.26 °N, 12.58 °E | Updated 51 seconds ago

Overcast
Overcast
52.7 °F
Feels Like 52.7 °F
N
22.0
Wind Variable Wind from WSW
Gusts 30.0 mph

Today
High -- | Low -- °F
--% Chance of Precip.
Yesterday
High -- | Low -- °F
Precip. -- in
4:32 AM 9:43 PM
Waxing Gibbous, 90% visible
Pressure 29.62 in
Visibility 6.2 miles
Clouds Scattered Clouds 2300 ft
Mostly Cloudy 2900 ft
Overcast 6200 ft
Dew Point 36 °F
Humidity 53%
Rainfall 0.00 in
Snow Depth Not available.
UV 3 out of 12
Pollen Not available.
Air Quality Not available.
Flu Activity Not available.
METAR ESTA 301220Z 27017G27KT 9999 SCT023 BKN029 OVC062 11/07 Q1003 RERA

More Conditions Fewer Conditions

Pressure 29.62 in
Visibility 6.2 miles
Clouds Scattered Clouds 2300 ft
Mostly Cloudy 2900 ft
Overcast 6200 ft
Dew Point 36 °F
Humidity 53%
Rainfall 0.00 in
Snow Depth Not available.
UV 3 out of 12
Pollen Not available.
Air Quality Not available.
Flu Activity Not available.
METAR ESTA 301220Z 27017G27KT 9999 SCT023 BKN029 OVC062 11/07 Q1003 RERA

More Conditions Fewer Conditions

10-Day Weather Forecast

Almanac

Astronomy

May. 30, 2015 Rise Set
Actual Time
Civil Twilight
Nautical Twilight
Astronomical Twilight
Moon
Length of Visible Light
Length of Day
Tomorrow will be .
, % of the Moon is Illuminated

Today's Extremes

Country Highs Country Lows

Community

WunderPhotos

Upload Photos

1,825,494 photos uploaded!

WunderBlogs® & News

Nearby

Air Quality

  Air Quality AQ Index Pollutant
Not available.

Snow Depth

Station Depth Elevation

Earthquake Activity

City Distance Mag. Time & Date
Minimum magnitude displayed is 2.5.

Coastal Water Temperatures

Place Temperature

Stations

Nearby Weather Stations

Station Location Temp. Windchill Dew Point Humidity Wind Precip. Elev Updated Type